Time;durP1;ratioP1;P1;durP2;ratioP2;P2;SDS_P1;SDS_P2;PMS_P1;PMS_P2;Temp;Humidity;BMP_temperature;BMP_pressure;BME280_temperature;BME280_humidity;BME280_pressure;Samples;Min_cycle;Max_cycle;Signal;HPM_P1;HPM_P2
2023/02/12 00:00:06;;;;;;;1.50;1.20;;;7.60;98.20;;;;;;5129035;27;20479;-74
2023/02/12 00:02:34;;;;;;;1.60;1.20;;;7.60;98.20;;;;;;5125348;27;21058;-74
2023/02/12 00:05:00;;;;;;;1.50;1.10;;;7.60;98.20;;;;;;5128015;27;20461;-74
2023/02/12 00:07:30;;;;;;;1.53;1.20;;;7.60;98.20;;;;;;5120419;27;20470;-74
2023/02/12 00:09:58;;;;;;;1.50;1.20;;;7.60;98.20;;;;;;5126019;27;20459;-74
2023/02/12 00:12:25;;;;;;;1.60;1.20;;;7.60;98.20;;;;;;5119800;27;20522;-74
2023/02/12 00:14:52;;;;;;;1.60;1.20;;;7.60;98.20;;;;;;5130803;27;20462;-74
2023/02/12 00:17:19;;;;;;;1.60;1.20;;;7.60;98.20;;;;;;5123589;27;20473;-74
2023/02/12 00:19:47;;;;;;;1.60;1.10;;;7.60;98.20;;;;;;5127851;27;20462;-74
2023/02/12 00:22:14;;;;;;;1.53;1.20;;;7.60;98.20;;;;;;5125819;27;20534;-75
2023/02/12 00:24:41;;;;;;;1.60;1.40;;;7.60;98.20;;;;;;5127362;27;20923;-74
2023/02/12 00:27:10;;;;;;;1.60;1.40;;;7.60;98.20;;;;;;5128750;27;21003;-74
2023/02/12 00:29:37;;;;;;;1.57;1.20;;;7.60;98.20;;;;;;5133192;27;20478;-75
2023/02/12 00:32:04;;;;;;;1.60;1.17;;;7.60;98.20;;;;;;5120449;27;20471;-74
2023/02/12 00:34:32;;;;;;;1.60;1.13;;;7.60;98.20;;;;;;5111723;28;20555;-74
2023/02/12 00:36:59;;;;;;;1.60;1.20;;;7.50;98.20;;;;;;5119851;27;20770;-74
2023/02/12 00:39:26;;;;;;;1.60;1.20;;;7.50;98.20;;;;;;5130066;27;20558;-74
2023/02/12 00:41:53;;;;;;;1.60;1.20;;;7.60;98.20;;;;;;5122468;27;21042;-74
2023/02/12 00:44:21;;;;;;;1.60;1.20;;;7.50;98.20;;;;;;5137243;27;20468;-73
2023/02/12 00:46:48;;;;;;;1.60;1.40;;;7.60;98.20;;;;;;5128688;27;20481;-74
2023/02/12 00:49:17;;;;;;;1.53;1.20;;;7.50;98.20;;;;;;5140147;27;20973;-74
2023/02/12 00:51:44;;;;;;;1.60;1.40;;;7.50;98.20;;;;;;5126089;27;20477;-74
2023/02/12 00:54:11;;;;;;;1.60;1.20;;;7.50;98.20;;;;;;5143766;27;20553;-74
2023/02/12 00:56:38;;;;;;;1.60;1.20;;;7.50;98.20;;;;;;5120476;27;20474;-74
2023/02/12 00:59:05;;;;;;;1.77;1.67;;;7.50;98.20;;;;;;5140437;27;20499;-74
2023/02/12 01:01:34;;;;;;;1.60;1.20;;;7.50;98.20;;;;;;5129599;27;20473;-74
2023/02/12 01:04:01;;;;;;;1.60;1.20;;;7.50;98.20;;;;;;5142453;27;20478;-74
2023/02/12 01:06:28;;;;;;;1.60;1.20;;;7.50;98.20;;;;;;5121174;27;20628;-74
2023/02/12 01:08:54;;;;;;;1.60;1.20;;;7.50;98.20;;;;;;5139651;27;20467;-74
2023/02/12 01:11:21;;;;;;;1.57;1.20;;;7.50;98.20;;;;;;5123825;27;20557;-74
2023/02/12 01:13:48;;;;;;;1.57;1.20;;;7.50;98.20;;;;;;5131945;27;20474;-73
2023/02/12 01:16:18;;;;;;;1.60;1.30;;;7.50;98.20;;;;;;5125874;27;20868;-74
2023/02/12 01:18:47;;;;;;;1.57;1.20;;;7.40;98.20;;;;;;5146408;27;20546;-74
2023/02/12 01:21:16;;;;;;;1.60;1.20;;;7.40;98.20;;;;;;5123205;27;20554;-74
2023/02/12 01:23:44;;;;;;;1.60;1.30;;;7.40;98.20;;;;;;5135926;27;20482;-74
2023/02/12 01:26:12;;;;;;;1.60;1.30;;;7.40;98.20;;;;;;5123966;27;20542;-74
2023/02/12 01:28:39;;;;;;;1.60;1.30;;;7.40;98.20;;;;;;5142894;27;20545;-74
2023/02/12 01:31:46;;;;;;;1.57;1.20;;;7.40;98.20;;;;;;5118227;27;21000;-74
2023/02/12 01:34:15;;;;;;;1.60;1.20;;;7.40;98.20;;;;;;5120121;27;20478;-74
2023/02/12 01:36:42;;;;;;;1.60;1.30;;;7.40;98.20;;;;;;5129999;27;20521;-74
2023/02/12 01:39:11;;;;;;;1.57;1.20;;;7.30;98.20;;;;;;5136749;27;20458;-74
2023/02/12 01:41:42;;;;;;;1.60;1.30;;;7.30;98.20;;;;;;5121734;27;20481;-74
2023/02/12 01:44:14;;;;;;;1.60;1.30;;;7.30;98.20;;;;;;5137007;27;20467;-74
2023/02/12 01:46:42;;;;;;;1.60;1.20;;;7.30;98.20;;;;;;5128546;27;21044;-74
2023/02/12 01:49:16;;;;;;;1.53;1.20;;;7.30;98.20;;;;;;5138826;27;20450;-74
2023/02/12 01:51:45;;;;;;;1.60;1.30;;;7.30;98.20;;;;;;5128843;27;20500;-74
2023/02/12 01:54:15;;;;;;;1.57;1.23;;;7.30;98.20;;;;;;5132267;27;20559;-74
2023/02/12 01:56:43;;;;;;;1.57;1.20;;;7.30;98.20;;;;;;5126480;27;20473;-73
2023/02/12 01:59:11;;;;;;;1.60;1.30;;;7.30;98.20;;;;;;5134247;27;20454;-73
2023/02/12 02:01:38;;;;;;;1.60;1.10;;;7.30;98.20;;;;;;5114480;27;20527;-74
2023/02/12 02:04:10;;;;;;;1.60;1.20;;;7.30;98.20;;;;;;5130565;27;20920;-73
2023/02/12 02:06:42;;;;;;;1.60;1.20;;;7.30;98.20;;;;;;5113984;27;20510;-74
2023/02/12 02:09:10;;;;;;;1.60;1.20;;;7.30;98.20;;;;;;5119933;27;20986;-73
2023/02/12 02:14:34;;;;;;;1.60;1.23;;;7.20;98.20;;;;;;5130762;27;21037;-74
2023/02/12 02:17:35;;;;;;;1.57;1.20;;;7.20;98.20;;;;;;5112587;27;20478;-74
2023/02/12 02:20:38;;;;;;;1.60;1.20;;;7.20;98.20;;;;;;5118052;27;21048;-74
2023/02/12 02:23:34;;;;;;;1.53;1.20;;;7.20;98.20;;;;;;5125076;27;20510;-74
2023/02/12 02:26:35;;;;;;;1.60;1.20;;;7.30;98.20;;;;;;5119112;27;20531;-73
2023/02/12 02:29:20;;;;;;;1.60;1.30;;;7.30;98.20;;;;;;5121044;27;20458;-74
2023/02/12 02:31:57;;;;;;;1.60;1.30;;;7.30;98.20;;;;;;5109742;27;20605;-74
2023/02/12 02:34:33;;;;;;;1.57;1.20;;;7.20;98.20;;;;;;5130702;27;20507;-74
2023/02/12 02:37:11;;;;;;;1.60;1.20;;;7.30;98.20;;;;;;5117381;27;20483;-74
2023/02/12 02:39:44;;;;;;;1.57;1.20;;;7.20;98.20;;;;;;5126605;27;20463;-74
2023/02/12 02:42:17;;;;;;;1.60;1.30;;;7.20;98.20;;;;;;5125881;27;21063;-74
2023/02/12 02:44:50;;;;;;;1.57;1.20;;;7.20;98.20;;;;;;5131536;27;20481;-73
2023/02/12 02:47:23;;;;;;;1.60;1.20;;;7.20;98.20;;;;;;5126782;27;20556;-73
2023/02/12 02:49:54;;;;;;;1.60;1.20;;;7.30;98.20;;;;;;5132613;27;20537;-74
2023/02/12 02:52:24;;;;;;;1.60;1.20;;;7.20;98.20;;;;;;5120979;27;20472;-74
2023/02/12 02:54:56;;;;;;;1.50;1.20;;;7.20;98.20;;;;;;5124670;27;20914;-73
2023/02/12 02:57:28;;;;;;;1.60;1.20;;;7.20;98.20;;;;;;5129463;27;21089;-73
2023/02/12 03:00:02;;;;;;;1.60;1.20;;;7.20;98.20;;;;;;5129767;27;20465;-73
2023/02/12 03:02:34;;;;;;;1.60;1.30;;;7.20;98.20;;;;;;5119611;27;21075;-74
2023/02/12 03:05:06;;;;;;;1.60;1.47;;;7.20;98.20;;;;;;5125804;27;20473;-73
2023/02/12 03:07:38;;;;;;;1.60;1.20;;;7.20;98.20;;;;;;5126091;27;20499;-73
2023/02/12 03:10:12;;;;;;;1.60;1.30;;;7.20;98.20;;;;;;5122785;27;20483;-73
2023/02/12 03:12:44;;;;;;;1.60;1.30;;;7.20;98.20;;;;;;5130064;27;21032;-73
2023/02/12 03:15:18;;;;;;;1.60;1.20;;;7.20;98.20;;;;;;5125232;27;20456;-73
2023/02/12 03:17:49;;;;;;;1.60;1.20;;;7.20;98.20;;;;;;5118504;27;20475;-74
2023/02/12 03:20:20;;;;;;;1.60;1.30;;;7.20;98.20;;;;;;5123388;27;20541;-73
2023/02/12 03:22:52;;;;;;;1.57;1.10;;;7.20;98.20;;;;;;5129963;27;20509;-73
2023/02/12 03:25:25;;;;;;;1.60;1.30;;;7.20;98.20;;;;;;5126781;27;20491;-72
2023/02/12 03:28:00;;;;;;;1.60;1.23;;;7.20;98.20;;;;;;5130916;27;20474;-74
2023/02/12 03:30:38;;;;;;;1.60;1.30;;;7.20;98.20;;;;;;5128278;27;20462;-73
2023/02/12 03:33:16;;;;;;;1.60;1.33;;;7.20;98.20;;;;;;5127523;27;20493;-73
2023/02/12 03:35:51;;;;;;;1.60;1.30;;;7.20;98.20;;;;;;5128307;27;20982;-74
2023/02/12 03:38:28;;;;;;;1.60;1.20;;;7.20;98.20;;;;;;5091468;27;20475;-74
2023/02/12 03:41:03;;;;;;;1.60;1.20;;;7.20;98.20;;;;;;5114823;27;20550;-74
2023/02/12 03:43:36;;;;;;;1.60;1.30;;;7.20;98.20;;;;;;5130835;27;20479;-74
2023/02/12 03:46:11;;;;;;;1.63;1.33;;;7.20;98.20;;;;;;5117342;27;20464;-74
2023/02/12 03:48:45;;;;;;;1.57;1.20;;;7.20;98.20;;;;;;5128859;27;20540;-74
2023/02/12 03:51:18;;;;;;;1.60;1.17;;;7.20;98.20;;;;;;5121732;27;20516;-74
2023/02/12 03:53:46;;;;;;;1.60;1.50;;;7.20;98.20;;;;;;5135344;27;21003;-74
2023/02/12 03:56:17;;;;;;;1.53;1.20;;;7.20;98.20;;;;;;5119517;27;20474;-73
2023/02/12 03:58:45;;;;;;;1.60;1.20;;;7.20;98.20;;;;;;5140481;27;20465;-74
2023/02/12 04:01:13;;;;;;;1.53;1.10;;;7.20;98.20;;;;;;5116125;27;20481;-74
2023/02/12 04:03:42;;;;;;;1.60;1.20;;;7.20;98.20;;;;;;5127513;27;20504;-74
2023/02/12 04:06:20;;;;;;;2.43;2.23;;;7.20;98.20;;;;;;5111705;27;20474;-73
2023/02/12 04:08:47;;;;;;;1.57;1.20;;;7.20;98.20;;;;;;5133522;27;20470;-74
2023/02/12 04:11:26;;;;;;;1.57;1.20;;;7.20;98.20;;;;;;5111468;27;20466;-74
2023/02/12 04:14:08;;;;;;;1.53;1.30;;;7.20;98.20;;;;;;5128426;27;20548;-74
2023/02/12 04:16:43;;;;;;;1.60;1.30;;;7.20;98.20;;;;;;5105096;27;21081;-74
2023/02/12 04:19:16;;;;;;;1.57;1.20;;;7.20;98.20;;;;;;5123847;27;20550;-74
2023/02/12 04:21:54;;;;;;;1.60;1.20;;;7.20;98.20;;;;;;5102795;27;20626;-74
2023/02/12 04:24:29;;;;;;;1.60;1.30;;;7.20;98.20;;;;;;5125045;27;20479;-74
2023/02/12 04:27:03;;;;;;;1.60;1.43;;;7.20;98.20;;;;;;5112006;27;20505;-74
2023/02/12 04:29:40;;;;;;;1.60;1.20;;;7.20;98.20;;;;;;5120558;27;20803;-74
2023/02/12 04:32:15;;;;;;;1.57;1.30;;;7.20;98.20;;;;;;5105515;27;20487;-74
2023/02/12 04:34:50;;;;;;;1.57;1.20;;;7.20;98.20;;;;;;5111680;27;20482;-74
2023/02/12 04:37:22;;;;;;;1.50;1.20;;;7.20;98.20;;;;;;5103702;27;20477;-74
2023/02/12 04:39:50;;;;;;;1.53;1.20;;;7.20;98.20;;;;;;5120787;27;20947;-74
2023/02/12 04:42:17;;;;;;;1.60;1.20;;;7.20;98.20;;;;;;5109000;27;20484;-74
2023/02/12 04:44:45;;;;;;;1.57;1.20;;;7.20;98.20;;;;;;5118245;27;20510;-74
2023/02/12 04:47:13;;;;;;;1.60;1.30;;;7.20;98.20;;;;;;5109419;27;20506;-74
2023/02/12 04:49:40;;;;;;;1.57;1.20;;;7.20;98.20;;;;;;5120225;27;21030;-74
2023/02/12 04:52:09;;;;;;;1.60;1.20;;;7.20;98.20;;;;;;5107415;27;20520;-74
2023/02/12 04:54:36;;;;;;;1.60;1.20;;;7.20;98.20;;;;;;5118363;27;20479;-74
2023/02/12 04:57:03;;;;;;;1.60;1.30;;;7.20;98.20;;;;;;5103699;28;20520;-73
2023/02/12 04:59:30;;;;;;;1.60;1.20;;;7.20;98.20;;;;;;5111057;28;20851;-74
2023/02/12 05:01:57;;;;;;;1.60;1.30;;;7.20;98.20;;;;;;5105591;27;21037;-73
2023/02/12 05:04:24;;;;;;;1.60;1.20;;;7.20;98.20;;;;;;5118401;27;20478;-72
2023/02/12 05:06:51;;;;;;;1.57;1.30;;;7.20;98.20;;;;;;5109754;27;20606;-73
2023/02/12 05:09:20;;;;;;;1.60;1.30;;;7.20;98.20;;;;;;5119768;27;20450;-73
2023/02/12 05:11:47;;;;;;;1.50;1.20;;;7.20;98.20;;;;;;5109568;27;20980;-73
2023/02/12 05:14:15;;;;;;;1.60;1.20;;;7.20;98.20;;;;;;5113878;28;20487;-73
2023/02/12 05:16:42;;;;;;;1.60;1.30;;;7.20;98.20;;;;;;5109089;27;21036;-73
2023/02/12 05:19:09;;;;;;;1.60;1.20;;;7.20;98.20;;;;;;5111777;28;20451;-73
2023/02/12 05:21:36;;;;;;;1.60;1.20;;;7.20;98.20;;;;;;5111321;27;20547;-73
2023/02/12 05:24:04;;;;;;;1.60;1.20;;;7.20;98.20;;;;;;5122472;27;20490;-73
2023/02/12 05:26:32;;;;;;;1.60;1.20;;;7.20;98.20;;;;;;5103854;27;20869;-73
2023/02/12 05:28:59;;;;;;;1.60;1.20;;;7.20;98.20;;;;;;5117857;28;20462;-73
2023/02/12 05:31:26;;;;;;;3.80;3.40;;;7.20;98.20;;;;;;5115224;27;20475;-72
2023/02/12 05:33:53;;;;;;;1.53;1.20;;;7.20;98.20;;;;;;5118293;27;20479;-73
2023/02/12 05:36:22;;;;;;;1.60;1.30;;;7.20;98.20;;;;;;5111272;27;20977;-73
2023/02/12 05:38:51;;;;;;;1.60;1.30;;;7.20;98.20;;;;;;5118958;27;20800;-73
2023/02/12 05:41:20;;;;;;;1.57;1.23;;;7.20;98.20;;;;;;5108156;27;20475;-73
2023/02/12 05:43:49;;;;;;;1.60;1.23;;;7.20;98.20;;;;;;5114954;27;20490;-73
2023/02/12 05:46:17;;;;;;;1.83;1.73;;;7.20;98.20;;;;;;5108374;27;20487;-73
2023/02/12 05:48:44;;;;;;;1.73;1.63;;;7.20;98.20;;;;;;5117968;27;20463;-73
2023/02/12 05:51:13;;;;;;;1.60;1.30;;;7.20;98.20;;;;;;5108180;27;20489;-73
2023/02/12 05:53:41;;;;;;;1.60;1.20;;;7.20;98.20;;;;;;5119147;27;20472;-73
2023/02/12 05:56:10;;;;;;;1.57;1.20;;;7.20;98.20;;;;;;5110785;27;20566;-73
2023/02/12 05:58:37;;;;;;;1.60;1.20;;;7.20;98.20;;;;;;5129565;27;20459;-72
2023/02/12 06:01:10;;;;;;;1.57;1.20;;;7.20;98.20;;;;;;5109991;27;20462;-72
2023/02/12 06:03:37;;;;;;;1.53;1.20;;;7.20;98.20;;;;;;5130429;27;20494;-73
2023/02/12 06:06:05;;;;;;;1.57;1.10;;;7.20;98.20;;;;;;5112308;27;21078;-73
2023/02/12 06:08:32;;;;;;;1.53;1.13;;;7.20;98.20;;;;;;5136105;27;20470;-73
2023/02/12 06:11:02;;;;;;;1.53;1.20;;;7.20;98.20;;;;;;5115020;27;20541;-73
2023/02/12 06:13:29;;;;;;;1.60;1.30;;;7.20;98.20;;;;;;5123172;27;20562;-73
2023/02/12 06:15:56;;;;;;;1.60;1.23;;;7.20;98.20;;;;;;5111425;27;20474;-73
2023/02/12 06:18:25;;;;;;;1.57;1.20;;;7.20;98.20;;;;;;5136569;27;20465;-73
2023/02/12 06:20:53;;;;;;;1.60;1.30;;;7.10;98.20;;;;;;5109625;27;20516;-73
2023/02/12 06:23:20;;;;;;;1.60;1.30;;;7.10;98.20;;;;;;5115423;27;20476;-73
2023/02/12 06:25:47;;;;;;;1.60;1.20;;;7.10;98.20;;;;;;5111270;27;20945;-73
2023/02/12 06:28:14;;;;;;;1.60;1.20;;;7.10;98.20;;;;;;5114190;27;20468;-73
2023/02/12 06:30:41;;;;;;;1.53;1.20;;;7.10;98.20;;;;;;5116175;27;20554;-73
2023/02/12 06:33:08;;;;;;;1.53;1.20;;;7.10;98.20;;;;;;5107117;27;20474;-72
2023/02/12 06:35:40;;;;;;;1.60;1.20;;;7.10;98.20;;;;;;5118706;27;20523;-73
2023/02/12 06:38:08;;;;;;;1.60;1.20;;;7.10;98.20;;;;;;5111868;27;20509;-73
2023/02/12 06:40:35;;;;;;;1.60;1.30;;;7.10;98.20;;;;;;5121909;27;20463;-73
2023/02/12 06:43:02;;;;;;;1.70;1.43;;;7.10;98.20;;;;;;5111356;27;20563;-73
2023/02/12 06:45:29;;;;;;;1.60;1.20;;;7.10;98.20;;;;;;5117010;27;20551;-74
2023/02/12 06:47:57;;;;;;;1.60;1.30;;;7.10;98.20;;;;;;5106282;27;20671;-74
2023/02/12 06:50:24;;;;;;;1.60;1.20;;;7.10;98.20;;;;;;5125536;27;20520;-73
2023/02/12 06:52:53;;;;;;;1.60;1.30;;;7.10;98.20;;;;;;5105688;27;20526;-73
2023/02/12 06:55:20;;;;;;;1.60;1.40;;;7.10;98.20;;;;;;5128141;27;20455;-72
2023/02/12 06:57:47;;;;;;;1.60;1.20;;;7.10;98.20;;;;;;5111079;27;20549;-74
2023/02/12 07:00:14;;;;;;;1.60;1.20;;;7.10;98.20;;;;;;5124243;27;20462;-73
2023/02/12 07:02:42;;;;;;;1.60;1.30;;;7.10;98.20;;;;;;5108113;27;20558;-73
2023/02/12 07:05:09;;;;;;;1.60;1.20;;;7.10;98.20;;;;;;5116855;27;20469;-74
2023/02/12 07:07:36;;;;;;;1.70;1.60;;;7.10;98.20;;;;;;5110086;27;20672;-73
2023/02/12 07:10:05;;;;;;;1.60;1.20;;;7.10;98.20;;;;;;5117076;27;20510;-74
2023/02/12 07:12:33;;;;;;;1.57;1.27;;;7.10;98.20;;;;;;5114527;27;20470;-73
2023/02/12 07:15:01;;;;;;;1.60;1.30;;;7.10;98.20;;;;;;5123865;27;20874;-73
2023/02/12 07:17:29;;;;;;;1.60;1.23;;;7.10;98.20;;;;;;5119808;27;20479;-73
2023/02/12 07:19:56;;;;;;;1.60;1.30;;;7.20;98.20;;;;;;5121867;27;20458;-72
2023/02/12 07:22:24;;;;;;;1.70;1.40;;;7.20;98.20;;;;;;5111322;27;20480;-73
2023/02/12 07:24:51;;;;;;;1.57;1.20;;;7.20;98.20;;;;;;5119994;27;21137;-72
2023/02/12 07:27:20;;;;;;;1.60;1.40;;;7.20;98.20;;;;;;5121497;27;20477;-73
2023/02/12 07:29:47;;;;;;;1.60;1.30;;;7.20;98.20;;;;;;5127148;27;20482;-73
2023/02/12 07:32:14;;;;;;;1.60;1.20;;;7.20;98.20;;;;;;5118619;27;20467;-73
2023/02/12 07:34:41;;;;;;;1.60;1.20;;;7.20;98.20;;;;;;5122776;27;20492;-73
2023/02/12 07:37:08;;;;;;;1.60;1.20;;;7.20;98.20;;;;;;5114219;27;20478;-72
2023/02/12 07:39:35;;;;;;;1.60;1.20;;;7.30;98.20;;;;;;5125700;27;21098;-73
2023/02/12 07:42:03;;;;;;;1.57;1.20;;;7.20;98.20;;;;;;5106597;27;20819;-73
2023/02/12 07:44:33;;;;;;;1.60;1.30;;;7.20;98.20;;;;;;5119720;27;20475;-73
2023/02/12 07:47:01;;;;;;;1.60;1.20;;;7.30;98.20;;;;;;5106187;27;20484;-73
2023/02/12 07:49:28;;;;;;;1.57;1.23;;;7.30;98.20;;;;;;5120452;27;20513;-73
2023/02/12 07:51:57;;;;;;;1.60;1.20;;;7.30;98.20;;;;;;5118519;27;20475;-73
2023/02/12 07:54:25;;;;;;;1.60;1.20;;;7.30;98.20;;;;;;5124239;27;20483;-73
2023/02/12 07:56:52;;;;;;;1.60;1.27;;;7.40;98.20;;;;;;5112852;27;20970;-73
2023/02/12 07:59:20;;;;;;;1.60;1.20;;;7.40;98.20;;;;;;5125020;27;21106;-72
2023/02/12 08:01:50;;;;;;;1.60;1.10;;;7.50;98.20;;;;;;5109746;27;20489;-72
2023/02/12 08:04:19;;;;;;;1.60;1.30;;;7.50;98.20;;;;;;5116640;27;20570;-72
2023/02/12 08:06:48;;;;;;;1.60;1.30;;;7.50;98.20;;;;;;5101400;27;20479;-72
2023/02/12 08:09:17;;;;;;;1.60;1.20;;;7.50;98.20;;;;;;5119307;27;20875;-71
2023/02/12 08:11:44;;;;;;;1.60;1.30;;;7.50;98.20;;;;;;5106622;27;20478;-72
2023/02/12 08:14:13;;;;;;;1.60;1.20;;;7.60;98.20;;;;;;5115510;27;20562;-72
2023/02/12 08:16:42;;;;;;;1.60;1.30;;;7.60;98.20;;;;;;5108109;27;20474;-72
2023/02/12 08:19:11;;;;;;;1.60;1.20;;;7.60;98.20;;;;;;5123929;27;20459;-72
2023/02/12 08:21:38;;;;;;;1.60;1.20;;;7.60;98.20;;;;;;5107074;27;20470;-72
2023/02/12 08:24:06;;;;;;;1.60;1.30;;;7.70;98.20;;;;;;5116387;27;20535;-73
2023/02/12 08:26:36;;;;;;;1.60;1.20;;;7.70;98.20;;;;;;5105437;27;20539;-72
2023/02/12 08:29:06;;;;;;;1.60;1.20;;;7.70;98.20;;;;;;5125549;27;20459;-74
2023/02/12 08:31:35;;;;;;;1.60;1.30;;;7.70;98.20;;;;;;5109357;27;20486;-74
2023/02/12 08:34:03;;;;;;;1.57;1.17;;;7.70;98.20;;;;;;5125707;27;20527;-72
2023/02/12 08:36:36;;;;;;;1.60;1.20;;;7.80;98.20;;;;;;5107876;27;20482;-72
2023/02/12 08:39:05;;;;;;;1.60;1.20;;;7.80;98.20;;;;;;5123256;27;20462;-73
2023/02/12 08:41:33;;;;;;;1.60;1.20;;;7.80;98.20;;;;;;5104008;27;20628;-73
2023/02/12 08:44:01;;;;;;;1.60;1.30;;;7.90;98.20;;;;;;5117257;27;20495;-74
2023/02/12 08:46:30;;;;;;;1.60;1.20;;;7.90;98.20;;;;;;5104268;27;20479;-73
2023/02/12 08:48:58;;;;;;;1.60;1.20;;;7.90;98.20;;;;;;5115869;27;20455;-73
2023/02/12 08:51:27;;;;;;;3.50;3.30;;;7.90;98.20;;;;;;5113688;27;20470;-73
2023/02/12 08:53:58;;;;;;;1.60;1.20;;;8.00;98.20;;;;;;5126822;27;20479;-73
2023/02/12 08:56:27;;;;;;;1.60;1.30;;;8.00;98.20;;;;;;5103177;27;20483;-73
2023/02/12 08:58:54;;;;;;;1.70;1.40;;;8.10;98.20;;;;;;5111683;27;20452;-73
2023/02/12 09:01:25;;;;;;;1.60;1.40;;;8.10;98.20;;;;;;5109951;27;20478;-73
2023/02/12 09:03:54;;;;;;;1.60;1.20;;;8.10;98.20;;;;;;5129679;27;20502;-73
2023/02/12 09:06:23;;;;;;;1.60;1.20;;;8.20;98.20;;;;;;5119439;27;21051;-73
2023/02/12 09:08:52;;;;;;;1.60;1.20;;;8.20;98.20;;;;;;5133413;27;20464;-73
2023/02/12 09:11:29;;;;;;;1.60;1.10;;;8.30;98.20;;;;;;5106481;27;20495;-73
2023/02/12 09:13:57;;;;;;;1.60;1.20;;;8.30;98.20;;;;;;5117062;27;20470;-73
2023/02/12 09:16:25;;;;;;;1.60;1.10;;;8.40;98.20;;;;;;5110759;27;20494;-73
2023/02/12 09:18:54;;;;;;;1.70;1.57;;;8.40;98.20;;;;;;5123601;27;20517;-71
2023/02/12 09:21:25;;;;;;;1.93;1.70;;;8.40;98.20;;;;;;5119900;27;20534;-72
2023/02/12 09:23:53;;;;;;;1.90;1.67;;;8.50;98.20;;;;;;5144542;23;20621;-75
2023/02/12 09:26:24;;;;;;;2.80;2.60;;;8.50;98.20;;;;;;5035601;28;20474;-75
2023/02/12 09:28:53;;;;;;;1.60;1.20;;;8.60;98.20;;;;;;5044283;28;20462;-74
2023/02/12 09:31:25;;;;;;;1.60;1.30;;;8.60;98.20;;;;;;5032755;28;20462;-74
2023/02/12 09:33:54;;;;;;;1.60;1.10;;;8.70;98.20;;;;;;5041803;28;21053;-75
2023/02/12 09:36:22;;;;;;;3.73;3.43;;;8.70;98.20;;;;;;5052940;22;20481;-72
2023/02/12 09:38:53;;;;;;;1.60;1.30;;;8.70;98.20;;;;;;5061930;28;20478;-73
2023/02/12 09:42:02;;;;;;;1.60;1.27;;;8.80;98.20;;;;;;5051512;28;21128;-73
2023/02/12 09:44:38;;;;;;;1.60;1.20;;;8.80;98.20;;;;;;5013956;28;20703;-71
2023/02/12 09:47:14;;;;;;;1.60;1.20;;;8.80;98.20;;;;;;5055391;28;21056;-71
2023/02/12 09:50:12;;;;;;;1.60;1.20;;;8.90;98.20;;;;;;5080306;28;20965;-71
2023/02/12 09:52:42;;;;;;;1.60;1.20;;;8.90;98.20;;;;;;5057024;28;20929;-71
2023/02/12 09:55:16;;;;;;;1.60;1.10;;;8.90;98.20;;;;;;5086578;28;20793;-72
2023/02/12 09:57:49;;;;;;;3.53;3.17;;;8.90;98.20;;;;;;5057355;28;20866;-72
2023/02/12 10:00:23;;;;;;;1.60;1.10;;;9.00;98.20;;;;;;5083620;28;21324;-71
2023/02/12 10:02:54;;;;;;;1.60;1.10;;;9.00;98.20;;;;;;5076238;28;20475;-72
2023/02/12 10:05:33;;;;;;;1.60;1.20;;;9.10;98.20;;;;;;5085709;28;20886;-72
2023/02/12 10:08:26;;;;;;;1.60;1.17;;;9.10;98.20;;;;;;5058184;28;20489;-72
2023/02/12 10:13:41;;;;;;;1.60;1.20;;;9.20;98.20;;;;;;5129450;23;20508;-73
2023/02/12 10:16:18;;;;;;;1.70;1.57;;;9.20;98.20;;;;;;5009478;28;20470;-74
2023/02/12 10:19:08;;;;;;;1.60;1.20;;;9.20;98.20;;;;;;5037876;28;20463;-74
2023/02/12 10:21:47;;;;;;;1.60;1.20;;;9.30;98.20;;;;;;5014012;28;20513;-74
2023/02/12 10:24:41;;;;;;;1.60;1.10;;;9.40;98.20;;;;;;5055146;28;20555;-74
2023/02/12 10:27:15;;;;;;;1.60;1.20;;;9.50;98.20;;;;;;5041417;28;20580;-74
2023/02/12 10:29:47;;;;;;;1.80;1.57;;;9.60;98.20;;;;;;5050910;28;20957;-75
2023/02/12 10:32:23;;;;;;;1.60;1.10;;;9.70;98.20;;;;;;5039401;28;20859;-75
2023/02/12 10:34:51;;;;;;;1.60;1.07;;;9.80;98.20;;;;;;5053571;28;20537;-75
2023/02/12 10:37:28;;;;;;;1.60;1.20;;;9.90;98.20;;;;;;5034329;28;20553;-75
2023/02/12 10:40:00;;;;;;;1.60;1.10;;;9.90;98.20;;;;;;5055710;28;20832;-75
2023/02/12 10:42:38;;;;;;;2.03;1.83;;;10.00;98.20;;;;;;5033086;28;20513;-75
2023/02/12 10:45:15;;;;;;;1.60;1.10;;;10.10;98.20;;;;;;5048069;28;20489;-75
2023/02/12 10:47:42;;;;;;;1.60;1.20;;;10.10;98.20;;;;;;5038694;28;20747;-75
2023/02/12 10:50:20;;;;;;;1.60;1.10;;;10.10;98.20;;;;;;5054017;28;20462;-75
2023/02/12 10:52:52;;;;;;;1.60;1.10;;;10.10;98.20;;;;;;5025731;28;20490;-75
2023/02/12 10:55:28;;;;;;;1.60;1.20;;;10.10;98.20;;;;;;5049903;28;20719;-75
2023/02/12 10:57:56;;;;;;;1.70;1.40;;;10.10;98.20;;;;;;5042329;28;20548;-75
2023/02/12 11:00:28;;;;;;;1.60;1.10;;;10.10;98.20;;;;;;5047256;28;20552;-76
2023/02/12 11:03:06;;;;;;;1.60;1.10;;;10.20;98.20;;;;;;5021202;28;21046;-76
2023/02/12 11:05:36;;;;;;;1.60;1.10;;;10.20;98.20;;;;;;5051775;28;20743;-76
2023/02/12 11:08:04;;;;;;;1.60;1.20;;;10.30;98.20;;;;;;5018630;28;20491;-75
2023/02/12 11:10:38;;;;;;;1.60;1.10;;;10.30;98.20;;;;;;5050305;28;20504;-74
2023/02/12 11:13:06;;;;;;;1.60;1.10;;;10.40;98.20;;;;;;5025140;28;20481;-75
2023/02/12 11:15:38;;;;;;;1.60;1.00;;;10.50;98.20;;;;;;5048902;28;20469;-75
2023/02/12 11:18:08;;;;;;;1.60;1.10;;;10.70;98.20;;;;;;5035304;28;20482;-75
2023/02/12 11:20:40;;;;;;;1.60;1.10;;;10.70;98.20;;;;;;5055071;28;20476;-75
2023/02/12 11:23:23;;;;;;;1.60;1.10;;;10.70;98.20;;;;;;5042157;28;21140;-75
2023/02/12 11:25:57;;;;;;;1.60;1.10;;;10.70;98.20;;;;;;5037695;28;20461;-75
2023/02/12 11:28:25;;;;;;;1.60;1.20;;;10.80;98.20;;;;;;5044862;28;20992;-75
2023/02/12 11:30:56;;;;;;;1.60;1.10;;;10.80;98.20;;;;;;5037107;28;20920;-75
2023/02/12 11:33:30;;;;;;;1.60;1.00;;;10.90;98.20;;;;;;5044967;28;20830;-75
2023/02/12 11:36:00;;;;;;;1.60;1.10;;;10.90;98.20;;;;;;5039390;28;20457;-76
2023/02/12 11:38:35;;;;;;;1.60;1.10;;;10.90;98.20;;;;;;5053014;28;20474;-75
2023/02/12 11:41:23;;;;;;;1.60;1.03;;;10.90;98.20;;;;;;5048201;28;20457;-75
2023/02/12 11:43:52;;;;;;;1.60;1.10;;;11.00;98.20;;;;;;5048847;28;20793;-75
2023/02/12 11:46:24;;;;;;;1.60;1.10;;;11.00;98.20;;;;;;5037325;28;21016;-75
2023/02/12 11:48:52;;;;;;;1.60;1.10;;;11.00;98.20;;;;;;5049517;28;20921;-75
2023/02/12 11:51:25;;;;;;;1.60;1.20;;;11.00;98.20;;;;;;5037161;28;20553;-75
2023/02/12 11:53:54;;;;;;;1.60;1.20;;;11.00;98.20;;;;;;5051026;28;20464;-75
2023/02/12 11:56:22;;;;;;;1.60;1.00;;;11.10;98.20;;;;;;5039849;28;20821;-75
2023/02/12 11:58:50;;;;;;;1.60;1.10;;;11.00;98.20;;;;;;5048875;28;20546;-75
2023/02/12 12:01:24;;;;;;;1.87;1.70;;;11.00;98.20;;;;;;5036449;28;20836;-75
2023/02/12 12:03:59;;;;;;;1.60;1.10;;;10.90;98.20;;;;;;5048167;28;20983;-75
2023/02/12 12:06:35;;;;;;;1.60;1.20;;;11.00;98.20;;;;;;5038873;28;20483;-75
2023/02/12 12:09:07;;;;;;;1.60;1.17;;;11.00;98.20;;;;;;5042147;28;20462;-75
2023/02/12 12:11:41;;;;;;;2.43;2.23;;;11.00;98.20;;;;;;5036532;28;20488;-75
2023/02/12 12:14:17;;;;;;;1.60;1.20;;;11.00;98.20;;;;;;5047401;28;20479;-75
2023/02/12 12:19:53;;;;;;;1.60;1.10;;;10.90;98.20;;;;;;5050031;28;20454;-75
2023/02/12 12:22:42;;;;;;;1.60;1.10;;;10.90;98.20;;;;;;5040460;28;20618;-76
2023/02/12 12:25:18;;;;;;;1.57;1.00;;;10.90;98.20;;;;;;5046024;28;20481;-75
2023/02/12 12:28:09;;;;;;;1.60;1.10;;;11.00;98.20;;;;;;5033223;28;20482;-76
2023/02/12 12:31:02;;;;;;;1.60;1.00;;;11.00;98.20;;;;;;5045171;28;20469;-76
2023/02/12 12:33:43;;;;;;;1.60;1.20;;;10.90;98.20;;;;;;5017054;28;20922;-76
2023/02/12 12:36:40;;;;;;;1.53;1.00;;;11.00;98.20;;;;;;5033540;28;20962;-75
2023/02/12 12:39:27;;;;;;;1.60;1.10;;;10.90;98.20;;;;;;5042214;28;20472;-75
2023/02/12 12:42:27;;;;;;;1.57;1.00;;;10.90;98.20;;;;;;5032709;28;20882;-75
2023/02/12 12:45:21;;;;;;;1.60;1.17;;;10.80;98.20;;;;;;5048204;28;20482;-75
2023/02/12 12:48:08;;;;;;;1.60;1.10;;;10.90;98.20;;;;;;5036239;28;20993;-75
2023/02/12 12:50:54;;;;;;;1.60;1.10;;;10.90;98.20;;;;;;5048275;28;20466;-75
2023/02/12 12:53:42;;;;;;;1.80;1.57;;;11.00;98.20;;;;;;5015174;28;20983;-75
2023/02/12 12:56:39;;;;;;;2.10;1.30;;;11.00;98.20;;;;;;5039198;28;21064;-76
2023/02/12 12:59:45;;;;;;;1.90;1.60;;;11.00;98.20;;;;;;5047745;28;20465;-75
2023/02/12 13:02:48;;;;;;;1.60;1.10;;;11.00;98.20;;;;;;5033794;28;20478;-74
2023/02/12 13:05:58;;;;;;;1.60;1.10;;;11.10;98.20;;;;;;5049789;28;20481;-75
2023/02/12 13:09:04;;;;;;;1.60;1.20;;;11.10;98.20;;;;;;5018822;28;20498;-74
2023/02/12 13:11:48;;;;;;;1.60;1.10;;;11.10;98.20;;;;;;5036339;28;20575;-74
2023/02/12 13:14:38;;;;;;;1.57;1.00;;;11.10;98.20;;;;;;5046365;28;20466;-75
2023/02/12 13:17:19;;;;;;;1.57;1.00;;;11.10;98.20;;;;;;5038267;28;20575;-75
2023/02/12 13:20:03;;;;;;;1.50;1.00;;;11.10;98.20;;;;;;5045420;28;20979;-75
2023/02/12 13:22:43;;;;;;;1.57;1.10;;;11.10;98.20;;;;;;5033410;28;20517;-75
2023/02/12 13:25:26;;;;;;;1.60;1.10;;;11.10;98.20;;;;;;5055810;28;21300;-74
2023/02/12 13:28:02;;;;;;;1.53;1.03;;;11.10;98.20;;;;;;5037815;28;20859;-74
2023/02/12 13:30:39;;;;;;;1.53;1.10;;;11.20;98.20;;;;;;5049635;28;20462;-76